Time,TemperatureF,DewpointF,PressureIn,WindDirection,WindDirectionDegrees,WindSpeedMPH,WindSpeedGustMPH,Humidity,HourlyPrecipIn,Conditions,Clouds,dailyrainin,SoftwareType,DateUTC
2013-06-03 00:06:00,52.7,48.0,29.82,West,269,0.0,0.0,83,0.00,,,0.00,weatherlink.com 1.10,2013-06-03 05:06:00,
2013-06-03 00:21:00,52.4,47.0,29.82,West,269,0.0,0.0,83,0.00,,,0.00,weatherlink.com 1.10,2013-06-03 05:21:00,
2013-06-03 00:36:00,52.1,47.0,29.82,West,269,0.0,0.0,84,0.00,,,0.00,weatherlink.com 1.10,2013-06-03 05:36:00,
2013-06-03 00:51:00,52.0,48.0,29.82,West,269,0.0,0.0,85,0.00,,,0.00,weatherlink.com 1.10,2013-06-03 05:51:00,
2013-06-03 01:06:00,52.0,48.0,29.82,West,269,0.0,0.0,85,0.00,,,0.00,weatherlink.com 1.10,2013-06-03 06:06:00,
2013-06-03 01:21:00,52.2,47.0,29.82,West,269,0.0,0.0,83,0.00,,,0.00,weatherlink.com 1.10,2013-06-03 06:21:00,
2013-06-03 01:36:00,53.0,47.0,29.82,West,269,0.0,0.0,81,0.00,,,0.00,weatherlink.com 1.10,2013-06-03 06:36:00,
2013-06-03 01:51:00,53.3,47.0,29.82,West,269,0.0,0.0,80,0.00,,,0.00,weatherlink.com 1.10,2013-06-03 06:51:00,
2013-06-03 02:21:00,53.5,48.0,29.82,West,268,0.0,1.0,80,0.00,,,0.00,weatherlink.com 1.10,2013-06-03 07:21:00,
2013-06-03 02:36:00,53.4,47.0,29.81,West,268,0.0,0.0,80,0.00,,,0.00,weatherlink.com 1.10,2013-06-03 07:36:00,
2013-06-03 02:51:00,53.2,47.0,29.81,SSE,154,0.0,0.0,80,0.00,,,0.00,weatherlink.com 1.10,2013-06-03 07:51:00,
2013-06-03 03:06:00,53.2,47.0,29.81,SE,138,1.0,1.0,80,0.00,,,0.00,weatherlink.com 1.10,2013-06-03 08:06:00,
2013-06-03 03:21:00,53.3,47.0,29.82,SSE,153,0.0,2.0,80,0.00,,,0.00,weatherlink.com 1.10,2013-06-03 08:21:00,
2013-06-03 03:36:00,53.0,47.0,29.82,South,171,0.0,1.0,81,0.00,,,0.00,weatherlink.com 1.10,2013-06-03 08:36:00,
2013-06-03 03:51:00,52.6,47.0,29.83,South,171,0.0,0.0,82,0.00,,,0.00,weatherlink.com 1.10,2013-06-03 08:51:00,
2013-06-03 04:06:00,52.1,47.0,29.83,South,171,0.0,0.0,83,0.00,,,0.00,weatherlink.com 1.10,2013-06-03 09:06:00,
2013-06-03 04:21:00,51.7,47.0,29.83,South,171,0.0,0.0,84,0.00,,,0.00,weatherlink.com 1.10,2013-06-03 09:21:00,
2013-06-03 04:36:00,51.4,47.0,29.83,South,171,0.0,0.0,85,0.00,,,0.00,weatherlink.com 1.10,2013-06-03 09:36:00,
2013-06-03 05:06:00,50.5,47.0,29.84,South,171,0.0,0.0,86,0.00,,,0.00,weatherlink.com 1.10,2013-06-03 10:06:00,
2013-06-03 05:22:00,50.3,47.0,29.84,South,171,0.0,0.0,87,0.00,,,0.00,weatherlink.com 1.10,2013-06-03 10:22:00,
2013-06-03 05:37:00,50.2,47.0,29.84,South,171,0.0,0.0,87,0.00,,,0.00,weatherlink.com 1.10,2013-06-03 10:37:00,
2013-06-03 05:52:00,50.1,46.0,29.84,South,171,0.0,0.0,87,0.00,,,0.00,weatherlink.com 1.10,2013-06-03 10:52:00,
2013-06-03 06:07:00,50.1,47.0,29.84,South,171,0.0,0.0,88,0.00,,,0.00,weatherlink.com 1.10,2013-06-03 11:07:00,
2013-06-03 06:22:00,49.9,47.0,29.84,South,171,0.0,0.0,88,0.00,,,0.00,weatherlink.com 1.10,2013-06-03 11:22:00,
2013-06-03 06:37:00,50.1,47.0,29.83,South,171,0.0,0.0,89,0.00,,,0.00,weatherlink.com 1.10,2013-06-03 11:37:00,
2013-06-03 06:52:00,50.5,47.0,29.83,South,171,0.0,0.0,89,0.00,,,0.00,weatherlink.com 1.10,2013-06-03 11:52:00,
2013-06-03 07:07:00,51.2,48.0,29.83,South,171,0.0,0.0,89,0.00,,,0.00,weatherlink.com 1.10,2013-06-03 12:07:00,
2013-06-03 07:22:00,52.4,49.0,29.82,SSE,167,0.0,5.0,87,0.00,,,0.00,weatherlink.com 1.10,2013-06-03 12:22:00,
2013-06-03 07:37:00,53.3,49.0,29.82,SSE,158,0.0,3.0,85,0.00,,,0.00,weatherlink.com 1.10,2013-06-03 12:37:00,
2013-06-03 07:52:00,54.2,50.0,29.83,SSE,163,0.0,2.0,84,0.00,,,0.00,weatherlink.com 1.10,2013-06-03 12:52:00,
2013-06-03 08:08:00,54.9,50.0,29.81,South,175,0.0,4.0,83,0.00,,,0.00,weatherlink.com 1.10,2013-06-03 13:08:00,
2013-06-03 08:22:00,55.7,51.0,29.81,SW,230,0.0,4.0,83,0.00,,,0.00,weatherlink.com 1.10,2013-06-03 13:22:00,
2013-06-03 08:37:00,57.0,51.0,29.81,South,180,1.0,6.0,79,0.00,,,0.00,weatherlink.com 1.10,2013-06-03 13:37:00,
2013-06-03 08:52:00,58.3,51.0,29.81,SSE,168,1.0,5.0,78,0.00,,,0.00,weatherlink.com 1.10,2013-06-03 13:52:00,
2013-06-03 09:07:00,59.5,52.0,29.81,SE,134,0.0,6.0,75,0.00,,,0.00,weatherlink.com 1.10,2013-06-03 14:07:00,
2013-06-03 09:22:00,60.5,51.0,29.80,SSE,161,0.0,8.0,71,0.00,,,0.00,weatherlink.com 1.10,2013-06-03 14:22:00,
2013-06-03 09:37:00,61.7,51.0,29.80,SW,223,0.0,6.0,67,0.00,,,0.00,weatherlink.com 1.10,2013-06-03 14:37:00,
2013-06-03 09:52:00,62.6,51.0,29.80,SE,128,0.0,9.0,67,0.00,,,0.00,weatherlink.com 1.10,2013-06-03 14:52:00,
2013-06-03 10:07:00,63.2,51.0,29.79,ESE,106,1.0,7.0,64,0.00,,,0.00,weatherlink.com 1.10,2013-06-03 15:07:00,
2013-06-03 10:22:00,63.4,51.0,29.79,SSE,155,5.0,9.0,65,0.00,,,0.00,weatherlink.com 1.10,2013-06-03 15:22:00,
2013-06-03 10:37:00,63.9,51.0,29.79,SSE,157,5.0,8.0,63,0.00,,,0.00,weatherlink.com 1.10,2013-06-03 15:37:00,
2013-06-03 10:52:00,64.5,51.0,29.78,SSW,196,8.0,10.0,63,0.00,,,0.00,weatherlink.com 1.10,2013-06-03 15:52:00,
2013-06-03 11:07:00,64.9,52.0,29.78,SE,124,1.0,8.0,63,0.00,,,0.00,weatherlink.com 1.10,2013-06-03 16:07:00,
2013-06-03 11:22:00,65.6,52.0,29.77,SW,219,3.0,10.0,61,0.00,,,0.00,weatherlink.com 1.10,2013-06-03 16:22:00,
2013-06-03 11:37:00,66.3,51.0,29.77,SSE,161,2.0,7.0,59,0.00,,,0.00,weatherlink.com 1.10,2013-06-03 16:37:00,
2013-06-03 11:52:00,66.6,52.0,29.76,ESE,103,4.0,11.0,60,0.00,,,0.00,weatherlink.com 1.10,2013-06-03 16:52:00,
2013-06-03 12:08:00,67.6,52.0,29.75,SE,124,2.0,10.0,58,0.00,,,0.00,weatherlink.com 1.10,2013-06-03 17:08:00,
2013-06-03 12:23:00,68.4,53.0,29.75,SE,129,0.0,8.0,58,0.00,,,0.00,weatherlink.com 1.10,2013-06-03 17:23:00,
2013-06-03 12:38:00,68.9,52.0,29.74,SE,126,0.0,10.0,56,0.00,,,0.00,weatherlink.com 1.10,2013-06-03 17:38:00,
2013-06-03 12:53:00,69.4,52.0,29.73,SE,130,4.0,10.0,55,0.00,,,0.00,weatherlink.com 1.10,2013-06-03 17:53:00,
2013-06-03 13:08:00,69.9,54.0,29.72,ESE,113,2.0,6.0,57,0.00,,,0.00,weatherlink.com 1.10,2013-06-03 18:08:00,
2013-06-03 13:23:00,70.9,54.0,29.71,SSE,153,3.0,9.0,55,0.00,,,0.00,weatherlink.com 1.10,2013-06-03 18:23:00,
2013-06-03 13:38:00,71.2,54.0,29.71,SE,126,1.0,13.0,55,0.00,,,0.00,weatherlink.com 1.10,2013-06-03 18:38:00,
2013-06-03 13:53:00,72.0,53.0,29.70,SSW,199,1.0,9.0,52,0.00,,,0.00,weatherlink.com 1.10,2013-06-03 18:53:00,
2013-06-03 14:08:00,72.7,53.0,29.69,SSW,196,0.0,10.0,51,0.00,,,0.00,weatherlink.com 1.10,2013-06-03 19:08:00,
2013-06-03 14:23:00,73.4,54.0,29.68,SSE,157,0.0,12.0,51,0.00,,,0.00,weatherlink.com 1.10,2013-06-03 19:23:00,
2013-06-03 14:38:00,73.3,53.0,29.67,SSE,165,2.0,10.0,49,0.00,,,0.00,weatherlink.com 1.10,2013-06-03 19:38:00,
2013-06-03 14:53:00,73.8,52.0,29.66,SSW,209,6.0,8.0,47,0.00,,,0.00,weatherlink.com 1.10,2013-06-03 19:53:00,
2013-06-03 15:08:00,74.0,52.0,29.67,WSW,254,4.0,9.0,46,0.00,,,0.00,weatherlink.com 1.10,2013-06-03 20:08:00,
2013-06-03 15:23:00,74.5,51.0,29.66,East,100,2.0,11.0,44,0.00,,,0.00,weatherlink.com 1.10,2013-06-03 20:23:00,
2013-06-03 15:38:00,75.1,52.0,29.65,ESE,121,1.0,10.0,44,0.00,,,0.00,weatherlink.com 1.10,2013-06-03 20:38:00,
2013-06-03 15:53:00,75.5,53.0,29.65,SSE,163,2.0,8.0,45,0.00,,,0.00,weatherlink.com 1.10,2013-06-03 20:53:00,
2013-06-03 16:08:00,75.4,52.0,29.64,SE,137,0.0,18.0,44,0.00,,,0.00,weatherlink.com 1.10,2013-06-03 21:08:00,
2013-06-03 16:23:00,76.0,51.0,29.64,SW,224,1.0,9.0,42,0.00,,,0.00,weatherlink.com 1.10,2013-06-03 21:23:00,
2013-06-03 16:38:00,76.0,52.0,29.63,South,170,0.0,9.0,43,0.00,,,0.00,weatherlink.com 1.10,2013-06-03 21:38:00,
2013-06-03 16:53:00,76.1,52.0,29.63,ESE,111,3.0,10.0,43,0.00,,,0.00,weatherlink.com 1.10,2013-06-03 21:53:00,
2013-06-03 17:08:00,76.2,53.0,29.62,SW,219,3.0,9.0,44,0.00,,,0.00,weatherlink.com 1.10,2013-06-03 22:08:00,
2013-06-03 17:23:00,76.3,53.0,29.63,SE,130,7.0,11.0,44,0.00,,,0.00,weatherlink.com 1.10,2013-06-03 22:23:00,
2013-06-03 17:38:00,76.0,51.0,29.62,SSE,162,5.0,12.0,42,0.00,,,0.00,weatherlink.com 1.10,2013-06-03 22:38:00,
2013-06-03 17:53:00,75.9,50.0,29.62,SSE,148,1.0,9.0,41,0.00,,,0.00,weatherlink.com 1.10,2013-06-03 22:53:00,
2013-06-03 18:08:00,75.5,51.0,29.62,ESE,109,9.0,10.0,43,0.00,,,0.00,weatherlink.com 1.10,2013-06-03 23:08:00,
2013-06-03 18:23:00,75.3,51.0,29.62,SE,130,1.0,9.0,43,0.00,,,0.00,weatherlink.com 1.10,2013-06-03 23:23:00,
2013-06-03 18:38:00,75.4,53.0,29.62,NE,52,2.0,8.0,45,0.00,,,0.00,weatherlink.com 1.10,2013-06-03 23:38:00,
2013-06-03 18:53:00,74.9,52.0,29.62,SE,140,0.0,9.0,45,0.00,,,0.00,weatherlink.com 1.10,2013-06-03 23:53:00,
2013-06-03 19:08:00,74.4,53.0,29.61,SE,138,1.0,10.0,48,0.00,,,0.00,weatherlink.com 1.10,2013-06-04 00:08:00,
2013-06-03 19:24:00,74.0,53.0,29.62,SE,146,0.0,8.0,48,0.00,,,0.00,weatherlink.com 1.10,2013-06-04 00:24:00,
2013-06-03 19:39:00,73.1,53.0,29.62,ESE,107,0.0,5.0,49,0.00,,,0.00,weatherlink.com 1.10,2013-06-04 00:39:00,
2013-06-03 19:54:00,72.5,53.0,29.62,South,187,2.0,9.0,50,0.00,,,0.00,weatherlink.com 1.10,2013-06-04 00:54:00,
2013-06-03 20:09:00,71.9,53.0,29.63,ESE,119,2.0,9.0,52,0.00,,,0.00,weatherlink.com 1.10,2013-06-04 01:09:00,
2013-06-03 20:24:00,71.4,53.0,29.63,SSE,165,1.0,11.0,53,0.00,,,0.00,weatherlink.com 1.10,2013-06-04 01:24:00,
2013-06-03 20:39:00,70.8,53.0,29.64,ESE,121,0.0,7.0,54,0.00,,,0.00,weatherlink.com 1.10,2013-06-04 01:39:00,
2013-06-03 20:54:00,70.2,54.0,29.65,South,183,0.0,6.0,56,0.00,,,0.00,weatherlink.com 1.10,2013-06-04 01:54:00,
2013-06-03 21:09:00,69.6,54.0,29.65,SE,129,0.0,8.0,58,0.00,,,0.00,weatherlink.com 1.10,2013-06-04 02:09:00,
2013-06-03 21:24:00,69.0,54.0,29.65,SW,229,0.0,5.0,59,0.00,,,0.00,weatherlink.com 1.10,2013-06-04 02:24:00,
2013-06-03 21:39:00,68.5,54.0,29.66,ENE,78,0.0,7.0,60,0.00,,,0.00,weatherlink.com 1.10,2013-06-04 02:39:00,
2013-06-03 21:54:00,68.2,54.0,29.65,ESE,114,1.0,7.0,61,0.00,,,0.00,weatherlink.com 1.10,2013-06-04 02:54:00,
2013-06-03 22:09:00,67.7,54.0,29.65,SW,224,0.0,7.0,62,0.00,,,0.00,weatherlink.com 1.10,2013-06-04 03:09:00,
2013-06-03 22:24:00,67.4,54.0,29.65,SSE,160,0.0,10.0,63,0.00,,,0.00,weatherlink.com 1.10,2013-06-04 03:24:00,
2013-06-03 22:39:00,66.8,55.0,29.65,SE,127,1.0,8.0,65,0.00,,,0.00,weatherlink.com 1.10,2013-06-04 03:39:00,
2013-06-03 22:54:00,66.3,55.0,29.66,South,186,0.0,5.0,67,0.00,,,0.00,weatherlink.com 1.10,2013-06-04 03:54:00,
2013-06-03 23:09:00,65.9,55.0,29.66,ESE,105,0.0,6.0,68,0.00,,,0.00,weatherlink.com 1.10,2013-06-04 04:09:00,
2013-06-03 23:24:00,65.6,55.0,29.66,SE,145,0.0,5.0,69,0.00,,,0.00,weatherlink.com 1.10,2013-06-04 04:24:00,
2013-06-03 23:39:00,65.2,55.0,29.67,ESE,114,0.0,3.0,70,0.00,,,0.00,weatherlink.com 1.10,2013-06-04 04:39:00,
2013-06-03 23:54:00,65.0,55.0,29.68,SSW,201,0.0,5.0,71,0.00,,,0.00,weatherlink.com 1.10,2013-06-04 04:54:00,